Garden River, Canada
Current Conditions -  °F | °C
As of 4:20 PM on Monday 24 Nov 2014 (Local Time) from KANJ Reporting Station
Haze Haze  
Wind Chill: 33°   Ceiling: 200
Heat Index: 39°   Visibility: 3mi
Dew Point: 38°   Wind: 8mph
Humidity: 96%   Direction: 290°WNW
Pressure: 29.04"   Gusts: NA
Location:  46.55°N, 84.15°W
Report Text: KANJ 242120Z AUTO 29007KT 3SM BR OVC002 04/03 A2904 RMK AO2 T00390033
Loading
Personal Weather Stations






























Interactive Weather Map New forecast layout! Learn more

10-Day Weather Forecast

Advertisements
Track Severe Weather on mobile